Time;durP1;ratioP1;P1;durP2;ratioP2;P2;SDS_P1;SDS_P2;PMS_P1;PMS_P2;Temp;Humidity;BMP_temperature;BMP_pressure;BME280_temperature;BME280_humidity;BME280_pressure;Samples;Min_cycle;Max_cycle;Signal;HPM_P1;HPM_P2
2023/04/01 00:00:06;;;;;;;;;;;;;;;17.51;nan;99668.25;5001580;28;19921;-89
2023/04/01 00:02:32;;;;;;;;;;;;;;;17.51;nan;99671.75;4982124;28;19937;-89
2023/04/01 00:04:57;;;;;;;;;;;;;;;17.52;nan;99667.13;5004981;28;20394;-89
2023/04/01 00:07:25;;;;;;;;;;;;;;;17.48;nan;99674.31;5003997;28;19917;-89
2023/04/01 00:09:53;;;;;;;;;;;;;;;17.48;nan;99672.41;5004017;28;19918;-90
2023/04/01 00:12:18;;;;;;;;;;;;;;;17.47;nan;99670.00;5004005;28;19925;-90
2023/04/01 00:14:44;;;;;;;;;;;;;;;17.47;nan;99667.31;5006734;28;20409;-89
2023/04/01 00:17:10;;;;;;;;;;;;;;;17.45;nan;99669.53;5006246;28;20419;-90
2023/04/01 00:19:36;;;;;;;;;;;;;;;17.45;nan;99666.84;4984340;28;19992;-90
2023/04/01 00:22:05;;;;;;;;;;;;;;;17.45;nan;99659.50;5001842;28;19929;-90
2023/04/01 00:24:30;;;;;;;;;;;;;;;17.48;nan;99661.56;5001256;28;19952;-90
2023/04/01 00:26:56;;;;;;;;;;;;;;;17.49;nan;99667.78;4986383;28;20658;-90
2023/04/01 00:29:24;;;;;;;;;;;;;;;17.49;nan;99667.78;4998749;28;20024;-90
2023/04/01 00:31:49;;;;;;;;;;;;;;;17.49;nan;99674.00;5003391;28;19928;-89
2023/04/01 00:34:15;;;;;;;;;;;;;;;17.48;nan;99671.59;5006264;28;19922;-90
2023/04/01 00:36:40;;;;;;;;;;;;;;;17.44;nan;99667.94;5007790;28;20161;-90
2023/04/01 00:39:05;;;;;;;;;;;;;;;17.44;nan;99665.25;5006678;28;19925;-90
2023/04/01 00:41:31;;;;;;;;;;;;;;;17.43;nan;99666.34;5005523;28;19921;-90
2023/04/01 00:44:15;;;;;;;;;;;;;;;17.43;nan;99667.16;4985205;28;20393;-90
2023/04/01 00:46:40;;;;;;;;;;;;;;;17.43;nan;99663.66;5003473;28;21615;-90
2023/04/01 00:49:06;;;;;;;;;;;;;;;17.43;nan;99663.66;5007258;28;19983;-90
2023/04/01 00:51:31;;;;;;;;;;;;;;;17.43;nan;99666.34;5004536;28;19918;-89
2023/04/01 00:54:01;;;;;;;;;;;;;;;17.44;nan;99665.25;5002172;28;19943;-89
2023/04/01 00:56:41;;;;;;;;;;;;;;;17.43;nan;99663.66;5003803;28;19921;-90
2023/04/01 00:59:10;;;;;;;;;;;;;;;17.42;nan;99662.84;5006273;28;19979;-90
2023/04/01 01:01:36;;;;;;;;;;;;;;;17.42;nan;99662.06;5004614;28;19929;-90
2023/04/01 01:04:02;;;;;;;;;;;;;;;17.41;nan;99663.94;5004567;28;19925;-90
2023/04/01 01:06:42;;;;;;;;;;;;;;;17.41;nan;99658.53;4999997;28;19943;-90
2023/04/01 01:09:10;;;;;;;;;;;;;;;17.40;nan;99665.06;4998554;28;20033;-90
2023/04/01 01:11:38;;;;;;;;;;;;;;;17.39;nan;99665.38;5004973;28;19921;-90
2023/04/01 01:14:16;;;;;;;;;;;;;;;17.39;nan;99659.97;5004114;28;20390;-90
2023/04/01 01:16:48;;;;;;;;;;;;;;;17.40;nan;99666.97;5006101;28;20322;-90
2023/04/01 01:19:33;;;;;;;;;;;;;;;17.41;nan;99665.84;5004053;28;19929;-91
2023/04/01 01:22:02;;;;;;;;;;;;;;;17.40;nan;99665.06;5003303;28;19922;-91
2023/04/01 01:24:51;;;;;;;;;;;;;;;17.39;nan;99660.75;5004543;28;19924;-90
2023/04/01 01:27:17;;;;;;;;;;;;;;;17.37;nan;99663.00;5004784;28;19921;-89
2023/04/01 01:29:55;;;;;;;;;;;;;;;17.37;nan;99662.19;5005188;28;19948;-89
2023/04/01 01:32:49;;;;;;;;;;;;;;;17.35;nan;99667.13;5005084;28;20052;-89
2023/04/01 01:35:33;;;;;;;;;;;;;;;17.32;nan;99671.28;5005185;28;19925;-90
2023/04/01 01:38:03;;;;;;;;;;;;;;;17.31;nan;99672.41;5004155;28;19921;-90
2023/04/01 01:40:30;;;;;;;;;;;;;;;17.32;nan;99670.50;5003200;28;20272;-88
2023/04/01 01:42:58;;;;;;;;;;;;;;;17.33;nan;99680.22;5001392;28;19929;-91
2023/04/01 01:45:25;;;;;;;;;;;;;;;17.35;nan;99678.78;5005082;28;19960;-90
2023/04/01 01:47:51;;;;;;;;;;;;;;;17.38;nan;99674.63;5006499;28;19929;-90
2023/04/01 01:50:20;;;;;;;;;;;;;;;17.38;nan;99680.03;5003970;28;19918;-89
2023/04/01 01:52:45;;;;;;;;;;;;;;;17.36;nan;99674.16;5002962;28;19933;-89
2023/04/01 01:55:28;;;;;;;;;;;;;;;17.36;nan;99680.34;5002204;28;19925;-90
2023/04/01 01:57:56;;;;;;;;;;;;;;;17.37;nan;99678.44;5005712;28;19917;-90
2023/04/01 02:00:21;;;;;;;;;;;;;;;17.37;nan;99681.16;5005078;28;19917;-90
2023/04/01 02:02:47;;;;;;;;;;;;;;;17.37;nan;99681.16;5009268;28;19932;-90
2023/04/01 02:05:16;;;;;;;;;;;;;;;17.37;nan;99691.97;5005496;28;20415;-91
2023/04/01 02:07:49;;;;;;;;;;;;;;;17.34;nan;99682.59;5008409;28;20401;-91
2023/04/01 02:10:15;;;;;;;;;;;;;;;17.33;nan;99683.72;5004974;28;20355;-90
2023/04/01 02:12:47;;;;;;;;;;;;;;;17.33;nan;99681.00;5006684;28;19925;-90
2023/04/01 02:15:14;;;;;;;;;;;;;;;17.31;nan;99685.16;5004918;28;19921;-90
2023/04/01 02:17:43;;;;;;;;;;;;;;;17.32;nan;99684.81;5005355;28;19925;-90
2023/04/01 02:20:15;;;;;;;;;;;;;;;17.33;nan;99680.22;5006384;28;19925;-89
2023/04/01 02:22:47;;;;;;;;;;;;;;;17.34;nan;99687.22;5003392;28;19961;-89
2023/04/01 02:25:14;;;;;;;;;;;;;;;17.32;nan;99690.25;5011231;28;19959;-90
2023/04/01 02:27:40;;;;;;;;;;;;;;;17.33;nan;99693.75;5005066;28;19933;-89
2023/04/01 02:30:07;;;;;;;;;;;;;;;17.33;nan;99696.44;5006449;28;19925;-89
2023/04/01 02:32:33;;;;;;;;;;;;;;;17.32;nan;99694.84;5003496;28;20020;-90
2023/04/01 02:35:03;;;;;;;;;;;;;;;17.31;nan;99699.47;5004379;28;20538;-89
2023/04/01 02:37:28;;;;;;;;;;;;;;;17.33;nan;99701.88;5003482;28;19939;-90
2023/04/01 02:39:53;;;;;;;;;;;;;;;17.33;nan;99704.56;5005659;28;19917;-89
2023/04/01 02:42:19;;;;;;;;;;;;;;;17.31;nan;99704.91;4989160;28;19921;-90
2023/04/01 02:44:44;;;;;;;;;;;;;;;17.29;nan;99703.63;5005377;28;20762;-90
2023/04/01 02:47:10;;;;;;;;;;;;;;;17.28;nan;99710.16;5004558;28;19925;-90
2023/04/01 02:49:35;;;;;;;;;;;;;;;17.29;nan;99711.75;5004540;28;19928;-90
2023/04/01 02:52:00;;;;;;;;;;;;;;;17.29;nan;99711.75;5002987;28;19957;-90
2023/04/01 02:54:26;;;;;;;;;;;;;;;17.32;nan;99716.50;5002460;28;19921;-90
2023/04/01 02:56:51;;;;;;;;;;;;;;;17.32;nan;99727.34;5003344;28;19968;-89
2023/04/01 02:59:17;;;;;;;;;;;;;;;17.32;nan;99721.94;4983662;28;19963;-90
2023/04/01 03:01:42;;;;;;;;;;;;;;;17.31;nan;99728.47;5005768;28;20414;-90
2023/04/01 03:04:08;;;;;;;;;;;;;;;17.30;nan;99735.78;5002838;28;19995;-90
2023/04/01 03:06:33;;;;;;;;;;;;;;;17.31;nan;99733.88;5003347;28;19937;-90
2023/04/01 03:08:58;;;;;;;;;;;;;;;17.30;nan;99740.41;5003352;28;20395;-90
2023/04/01 03:11:25;;;;;;;;;;;;;;;17.27;nan;99743.75;5003533;28;19917;-90
2023/04/01 03:13:51;;;;;;;;;;;;;;;17.21;nan;99741.19;5001452;28;19937;-89
2023/04/01 03:16:16;;;;;;;;;;;;;;;17.20;nan;99747.69;5004769;28;19991;-91
2023/04/01 03:18:42;;;;;;;;;;;;;;;17.19;nan;99756.94;5001877;28;19979;-91
2023/04/01 03:21:17;;;;;;;;;;;;;;;17.17;nan;99751.03;5004589;28;19928;-90
2023/04/01 03:23:43;;;;;;;;;;;;;;;17.18;nan;99755.34;4984639;28;19929;-90
2023/04/01 03:26:11;;;;;;;;;;;;;;;17.15;nan;99761.41;5003189;28;19926;-90
2023/04/01 03:28:39;;;;;;;;;;;;;;;17.11;nan;99760.44;5004665;28;20017;-91
2023/04/01 03:31:04;;;;;;;;;;;;;;;17.06;nan;99757.88;5006846;28;19918;-90
2023/04/01 03:33:30;;;;;;;;;;;;;;;17.03;nan;99768.53;5000766;28;19928;-90
2023/04/01 03:35:56;;;;;;;;;;;;;;;17.00;nan;99769.94;5002753;28;19932;-90
2023/04/01 03:38:21;;;;;;;;;;;;;;;16.94;nan;99771.22;5001790;28;20461;-90
2023/04/01 03:40:46;;;;;;;;;;;;;;;16.90;nan;99771.06;5006449;28;19952;-90
2023/04/01 03:43:12;;;;;;;;;;;;;;;16.85;nan;99773.88;4984979;28;20127;-91
2023/04/01 03:45:45;;;;;;;;;;;;;;;16.83;nan;99776.09;4987984;28;20168;-91
2023/04/01 03:48:10;;;;;;;;;;;;;;;16.82;nan;99771.00;5003872;28;20377;-90
2023/04/01 03:50:35;;;;;;;;;;;;;;;16.75;nan;99776.88;5001974;28;19964;-91
2023/04/01 03:53:10;;;;;;;;;;;;;;;16.70;nan;99778.94;5005210;28;19918;-91
2023/04/01 03:55:36;;;;;;;;;;;;;;;16.67;nan;99776.81;5001559;28;19925;-92
2023/04/01 03:58:02;;;;;;;;;;;;;;;16.66;nan;99786.03;5005262;28;20058;-91
2023/04/01 04:00:28;;;;;;;;;;;;;;;16.63;nan;99782.84;5000957;28;20495;-91
2023/04/01 04:02:55;;;;;;;;;;;;;;;16.59;nan;99792.69;4999800;28;19975;-90
2023/04/01 04:05:20;;;;;;;;;;;;;;;16.53;nan;99785.81;5006344;28;19917;-90
2023/04/01 04:07:46;;;;;;;;;;;;;;;16.46;nan;99798.97;5006379;28;19928;-90
2023/04/01 04:10:11;;;;;;;;;;;;;;;16.37;nan;99810.88;5003471;28;19945;-91
2023/04/01 04:12:37;;;;;;;;;;;;;;;16.31;nan;99800.16;5003347;28;19921;-90
2023/04/01 04:15:02;;;;;;;;;;;;;;;16.28;nan;99808.09;5002277;28;20155;-90
2023/04/01 04:17:27;;;;;;;;;;;;;;;16.30;nan;99816.69;5005763;28;20422;-90
2023/04/01 04:19:53;;;;;;;;;;;;;;;16.28;nan;99811.59;5009371;28;20005;-90
2023/04/01 04:22:18;;;;;;;;;;;;;;;16.23;nan;99819.03;5024042;23;19995;-90
2023/04/01 04:24:44;;;;;;;;;;;;;;;16.19;nan;99831.56;5015816;28;19973;-89
2023/04/01 04:27:09;;;;;;;;;;;;;;;16.14;nan;99828.97;5014885;28;20030;-90
2023/04/01 04:29:34;;;;;;;;;;;;;;;16.10;nan;99836.09;5013545;28;20044;-90
2023/04/01 04:32:00;;;;;;;;;;;;;;;16.10;nan;99833.41;5017341;28;19928;-90
2023/04/01 04:34:25;;;;;;;;;;;;;;;16.07;nan;99844.81;5015244;28;20048;-90
2023/04/01 04:36:50;;;;;;;;;;;;;;;16.06;nan;99844.03;5018576;28;19978;-90
2023/04/01 04:39:16;;;;;;;;;;;;;;;16.07;nan;99842.13;5011300;28;19917;-90
2023/04/01 04:41:41;;;;;;;;;;;;;;;16.06;nan;99848.63;5012036;28;19996;-89
2023/04/01 04:44:07;;;;;;;;;;;;;;;16.05;nan;99847.84;5009973;28;19917;-88
2023/04/01 04:46:33;;;;;;;;;;;;;;;16.02;nan;99851.94;5009041;28;19921;-89
2023/04/01 04:48:58;;;;;;;;;;;;;;;15.99;nan;99865.28;4991790;28;19922;-89
2023/04/01 04:51:24;;;;;;;;;;;;;;;15.91;nan;99861.38;5008994;28;19975;-89
2023/04/01 04:53:50;;;;;;;;;;;;;;;15.88;nan;99863.91;4993446;28;19989;-88
2023/04/01 04:56:19;;;;;;;;;;;;;;;15.85;nan;99870.72;5021324;28;19917;-89
2023/04/01 04:58:45;;;;;;;;;;;;;;;15.80;nan;99867.31;4995826;28;19921;-89
2023/04/01 05:01:12;;;;;;;;;;;;;;;15.74;nan;99873.94;5016147;28;19928;-88
2023/04/01 05:03:38;;;;;;;;;;;;;;;15.71;nan;99872.63;5014389;28;19925;-89
2023/04/01 05:06:04;;;;;;;;;;;;;;;15.69;nan;99872.16;5019741;28;19929;-89
2023/04/01 05:08:29;;;;;;;;;;;;;;;15.67;nan;99883.25;5014242;28;19921;-88
2023/04/01 05:10:55;;;;;;;;;;;;;;;15.66;nan;99881.66;5018813;28;19924;-89
2023/04/01 05:13:20;;;;;;;;;;;;;;;15.63;nan;99878.75;5017666;28;19977;-89
2023/04/01 05:15:45;;;;;;;;;;;;;;;15.59;nan;99889.34;5016856;28;19921;-90
2023/04/01 05:18:11;;;;;;;;;;;;;;;15.55;nan;99887.53;5017675;28;19928;-89
2023/04/01 05:20:36;;;;;;;;;;;;;;;15.50;nan;99885.75;5017503;28;19940;-88
2023/04/01 05:23:02;;;;;;;;;;;;;;;15.49;nan;99888.75;5012296;28;19960;-89
2023/04/01 05:25:27;;;;;;;;;;;;;;;15.48;nan;99893.34;5012907;28;19918;-89
2023/04/01 05:27:52;;;;;;;;;;;;;;;15.47;nan;99899.06;5014989;28;20314;-89
2023/04/01 05:30:18;;;;;;;;;;;;;;;15.46;nan;99895.56;5016893;28;19928;-88
2023/04/01 05:32:44;;;;;;;;;;;;;;;15.45;nan;99895.84;5018193;28;19925;-89
2023/04/01 05:35:10;;;;;;;;;;;;;;;15.41;nan;99909.13;5019395;28;19917;-88
2023/04/01 05:37:35;;;;;;;;;;;;;;;15.40;nan;99904.81;5019898;28;20090;-89
2023/04/01 05:40:01;;;;;;;;;;;;;;;15.37;nan;99908.94;5015330;28;19921;-88
2023/04/01 05:42:26;;;;;;;;;;;;;;;15.35;nan;99907.63;5016810;28;19927;-89
2023/04/01 05:44:52;;;;;;;;;;;;;;;15.34;nan;99919.53;5016268;28;19921;-89
2023/04/01 05:47:17;;;;;;;;;;;;;;;15.35;nan;99913.84;5021548;28;19968;-89
2023/04/01 05:49:43;;;;;;;;;;;;;;;15.36;nan;99920.81;5018456;28;20092;-89
2023/04/01 05:52:08;;;;;;;;;;;;;;;15.32;nan;99922.53;5018937;28;20004;-89
2023/04/01 05:54:34;;;;;;;;;;;;;;;15.31;nan;99920.13;5016795;28;20013;-89
2023/04/01 05:56:59;;;;;;;;;;;;;;;15.31;nan;99920.94;5015828;28;19929;-89
2023/04/01 05:59:24;;;;;;;;;;;;;;;15.30;nan;99924.72;5020375;28;19942;-89
2023/04/01 06:01:50;;;;;;;;;;;;;;;15.29;nan;99935.84;5013930;28;19921;-89
2023/04/01 06:04:17;;;;;;;;;;;;;;;15.21;nan;99931.91;5026639;28;19928;-89
2023/04/01 06:06:42;;;;;;;;;;;;;;;15.18;nan;99935.22;5018226;28;19921;-89
2023/04/01 06:09:16;;;;;;;;;;;;;;;15.17;nan;99938.22;5014772;28;19971;-89
2023/04/01 06:11:41;;;;;;;;;;;;;;;15.18;nan;99948.69;5014346;28;19985;-89
2023/04/01 06:14:11;;;;;;;;;;;;;;;15.20;nan;99951.09;5015858;28;19949;-89
2023/04/01 06:16:55;;;;;;;;;;;;;;;15.18;nan;99942.50;5019502;28;19945;-89
2023/04/01 06:19:21;;;;;;;;;;;;;;;15.15;nan;99948.50;5012322;28;19921;-89
2023/04/01 06:21:52;;;;;;;;;;;;;;;15.15;nan;99959.28;4939571;28;1900409;-89
2023/04/01 06:24:44;;;;;;;;;;;;;;;15.15;nan;99959.28;5017598;28;20000;-88
2023/04/01 06:27:22;;;;;;;;;;;;;;;15.11;nan;99959.91;5017385;28;19917;-89
2023/04/01 06:29:47;;;;;;;;;;;;;;;15.12;nan;99960.69;5014171;28;19961;-89
2023/04/01 06:32:15;;;;;;;;;;;;;;;15.08;nan;99965.88;5018156;28;19917;-89
2023/04/01 06:34:50;;;;;;;;;;;;;;;15.10;nan;99968.28;5018993;28;20345;-89
2023/04/01 06:37:39;;;;;;;;;;;;;;;15.10;nan;99979.88;5009569;28;19940;-89
2023/04/01 06:40:05;;;;;;;;;;;;;;;15.08;nan;99973.97;5012651;28;20008;-89
2023/04/01 06:42:33;;;;;;;;;;;;;;;15.09;nan;99974.78;5012754;28;19971;-89
2023/04/01 06:44:59;;;;;;;;;;;;;;;15.09;nan;99980.97;5018077;28;20016;-89
2023/04/01 06:47:47;;;;;;;;;;;;;;;15.13;nan;99978.47;5020419;28;19959;-90
2023/04/01 06:50:21;;;;;;;;;;;;;;;15.14;nan;99979.28;5016650;28;19941;-90
2023/04/01 06:53:04;;;;;;;;;;;;;;;15.15;nan;99989.78;4997037;28;19922;-90
2023/04/01 06:55:45;;;;;;;;;;;;;;;15.13;nan;99986.56;5014599;28;19945;-89
2023/04/01 06:58:17;;;;;;;;;;;;;;;15.11;nan;99986.88;5017210;28;19927;-90
2023/04/01 07:00:44;;;;;;;;;;;;;;;15.09;nan;99993.66;5011256;28;19959;-90
2023/04/01 07:03:29;;;;;;;;;;;;;;;15.08;nan;99998.25;5013897;28;19922;-90
2023/04/01 07:05:56;;;;;;;;;;;;;;;15.09;nan;99999.06;5008844;28;20048;-90
2023/04/01 07:08:25;;;;;;;;;;;;;;;15.10;nan;100004.16;5013405;28;19933;-90
2023/04/01 07:10:56;;;;;;;;;;;;;;;15.10;nan;99998.75;5016536;28;19968;-89
2023/04/01 07:13:25;;;;;;;;;;;;;;;15.12;nan;100003.88;5014775;28;20381;-89
2023/04/01 07:16:13;;;;;;;;;;;;;;;15.09;nan;100013.34;5014599;28;19921;-89
2023/04/01 07:18:42;;;;;;;;;;;;;;;15.07;nan;100012.81;5014707;28;19917;-90
2023/04/01 07:21:19;;;;;;;;;;;;;;;15.08;nan;100019.00;5008882;28;19931;-88
2023/04/01 07:23:54;;;;;;;;;;;;;;;15.10;nan;100024.94;4985433;28;20012;-89
2023/04/01 07:26:21;;;;;;;;;;;;;;;15.10;nan;100027.66;5005641;28;20363;-89
2023/04/01 07:28:47;;;;;;;;;;;;;;;15.11;nan;100030.03;5007518;28;20003;-90
2023/04/01 07:31:19;;;;;;;;;;;;;;;15.13;nan;100026.25;5007445;28;19925;-89
2023/04/01 07:33:51;;;;;;;;;;;;;;;15.12;nan;100030.84;5007067;28;20161;-88
2023/04/01 07:36:16;;;;;;;;;;;;;;;15.13;nan;100039.75;5011674;28;20286;-89
2023/04/01 07:39:01;;;;;;;;;;;;;;;15.11;nan;100040.03;5009062;28;19925;-89
2023/04/01 07:41:42;;;;;;;;;;;;;;;15.06;nan;100040.09;5004313;28;19921;-89
2023/04/01 07:44:16;;;;;;;;;;;;;;;15.04;nan;100036.91;5007012;28;19917;-89
2023/04/01 07:46:48;;;;;;;;;;;;;;;15.02;nan;100041.78;5005837;28;20647;-88
2023/04/01 07:49:34;;;;;;;;;;;;;;;15.02;nan;100044.47;5003465;28;19925;-89
2023/04/01 07:52:04;;;;;;;;;;;;;;;15.02;nan;100055.28;5005136;28;19995;-90
2023/04/01 07:54:39;;;;;;;;;;;;;;;15.02;nan;100047.97;5006059;28;19918;-89
2023/04/01 07:57:10;;;;;;;;;;;;;;;15.02;nan;100057.97;5009577;28;20008;-89
2023/04/01 07:59:42;;;;;;;;;;;;;;;15.02;nan;100058.78;5003550;28;19928;-89
2023/04/01 08:02:18;;;;;;;;;;;;;;;15.03;nan;100062.28;5007276;28;19925;-88
2023/04/01 08:05:01;;;;;;;;;;;;;;;15.02;nan;100069.56;5007203;28;20433;-89
2023/04/01 08:07:44;;;;;;;;;;;;;;;15.02;nan;100074.97;5002412;28;19924;-89
2023/04/01 08:10:20;;;;;;;;;;;;;;;15.06;nan;100075.97;5008675;28;20516;-89
2023/04/01 08:12:46;;;;;;;;;;;;;;;15.10;nan;100081.59;5009810;28;19925;-88
2023/04/01 08:15:35;;;;;;;;;;;;;;;15.09;nan;100085.41;5003552;28;20008;-88
2023/04/01 08:18:12;;;;;;;;;;;;;;;15.04;nan;100083.56;5009871;28;19926;-89
2023/04/01 08:20:56;;;;;;;;;;;;;;;15.01;nan;100088.75;4987321;28;19928;-89
2023/04/01 08:23:35;;;;;;;;;;;;;;;14.98;nan;100083.94;5005236;28;19953;-89
2023/04/01 08:26:04;;;;;;;;;;;;;;;14.98;nan;100089.34;5009082;28;19930;-89
2023/04/01 08:28:46;;;;;;;;;;;;;;;15.01;nan;100089.53;5011614;28;20343;-89
2023/04/01 08:31:35;;;;;;;;;;;;;;;15.03;nan;100094.66;5011949;28;19921;-89
2023/04/01 08:34:04;;;;;;;;;;;;;;;15.02;nan;100101.13;4974420;28;19967;-89
2023/04/01 08:36:35;;;;;;;;;;;;;;;15.01;nan;100108.44;5009743;28;19985;-89
2023/04/01 08:39:10;;;;;;;;;;;;;;;14.99;nan;100101.72;5011027;28;20008;-89
2023/04/01 08:41:45;;;;;;;;;;;;;;;15.00;nan;100104.13;5014068;28;20458;-90
2023/04/01 08:44:12;;;;;;;;;;;;;;;14.99;nan;100105.22;5015210;28;19929;-89
2023/04/01 08:46:53;;;;;;;;;;;;;;;14.97;nan;100112.00;5012079;28;19976;-89
2023/04/01 08:49:42;;;;;;;;;;;;;;;14.92;nan;100107.50;5022025;28;20330;-89
2023/04/01 08:52:07;;;;;;;;;;;;;;;14.91;nan;100111.28;5016267;28;19925;-89
2023/04/01 08:54:57;;;;;;;;;;;;;;;14.93;nan;100122.59;5013397;28;19972;-88
2023/04/01 08:57:31;;;;;;;;;;;;;;;14.91;nan;100121.28;5010753;28;19922;-89
2023/04/01 09:00:11;;;;;;;;;;;;;;;14.91;nan;100123.97;5014676;28;20319;-89
2023/04/01 09:02:48;;;;;;;;;;;;;;;14.94;nan;100123.38;5012979;28;19923;-89
2023/04/01 09:05:27;;;;;;;;;;;;;;;14.96;nan;100119.31;5010724;28;19921;-89
2023/04/01 09:08:10;;;;;;;;;;;;;;;14.98;nan;100127.91;5009271;28;20052;-89
2023/04/01 09:10:36;;;;;;;;;;;;;;;14.95;nan;100133.09;5009304;28;19918;-87
2023/04/01 09:13:21;;;;;;;;;;;;;;;14.94;nan;100131.47;5013628;28;19917;-88
2023/04/01 09:15:59;;;;;;;;;;;;;;;14.92;nan;100134.47;4988314;28;20133;-88
2023/04/01 09:18:25;;;;;;;;;;;;;;;14.92;nan;100134.47;5013933;28;19925;-88
2023/04/01 09:20:53;;;;;;;;;;;;;;;14.90;nan;100142.06;5014595;28;19922;-88
2023/04/01 09:23:46;;;;;;;;;;;;;;;14.89;nan;100145.03;5008453;28;19948;-88
2023/04/01 09:26:33;;;;;;;;;;;;;;;14.87;nan;100147.22;5008382;28;19952;-88
2023/04/01 09:29:04;;;;;;;;;;;;;;;14.89;nan;100155.81;5013749;28;19976;-88
2023/04/01 09:31:47;;;;;;;;;;;;;;;14.90;nan;100154.72;5006752;28;20028;-88
2023/04/01 09:34:15;;;;;;;;;;;;;;;14.90;nan;100168.19;5013030;28;19929;-88
2023/04/01 09:36:59;;;;;;;;;;;;;;;14.87;nan;100163.38;5009462;28;19929;-88
2023/04/01 09:39:37;;;;;;;;;;;;;;;14.85;nan;100169.06;5011538;28;19922;-88
2023/04/01 09:42:13;;;;;;;;;;;;;;;14.82;nan;100172.34;5015318;28;19932;-87
2023/04/01 09:45:02;;;;;;;;;;;;;;;14.85;nan;100176.38;5005227;28;19922;-90
2023/04/01 09:47:36;;;;;;;;;;;;;;;14.88;nan;100181.19;4995597;28;19928;-87
2023/04/01 09:50:20;;;;;;;;;;;;;;;14.88;nan;100175.78;5007520;28;20317;-87
2023/04/01 09:52:46;;;;;;;;;;;;;;;14.85;nan;100179.06;5016062;28;19928;-88
2023/04/01 09:55:17;;;;;;;;;;;;;;;14.81;nan;100184.25;5019517;28;20012;-88
2023/04/01 09:58:13;;;;;;;;;;;;;;;;;;;;;
2023/04/01 10:00:59;;;;;;;;;;;;;;;14.84;nan;100191.75;5007608;28;20142;-88
2023/04/01 10:03:39;;;;;;;;;;;;;;;14.82;nan;100193.94;5007347;28;19918;-88
2023/04/01 10:06:20;;;;;;;;;;;;;;;14.79;nan;100195.31;5011881;28;19928;-88
2023/04/01 10:08:51;;;;;;;;;;;;;;;14.80;nan;100202.31;5011386;28;19984;-88
2023/04/01 10:11:32;;;;;;;;;;;;;;;14.80;nan;100196.94;5002853;28;19932;-88
2023/04/01 10:14:07;;;;;;;;;;;;;;;14.80;nan;100205.00;5001552;28;19954;-88
2023/04/01 10:16:49;;;;;;;;;;;;;;;14.80;nan;100198.81;5000789;28;20389;-87
2023/04/01 10:19:15;;;;;;;;;;;;;;;14.78;nan;100201.00;5003481;28;19918;-88
2023/04/01 10:24:11;;;;;;;;;;;;;;;14.78;nan;100209.91;4977222;28;19952;-85
2023/04/01 10:26:36;;;;;;;;;;;;;;;14.80;nan;100201.50;4978187;28;19930;-88
2023/04/01 10:29:02;;;;;;;;;;;;;;;14.82;nan;100210.91;4977568;28;19926;-88
2023/04/01 10:31:27;;;;;;;;;;;;;;;14.81;nan;100209.31;4980716;28;19925;-85
2023/04/01 10:34:10;;;;;;;;;;;;;;;14.83;nan;100214.41;4977432;28;19932;-85
2023/04/01 10:36:38;;;;;;;;;;;;;;;14.81;nan;100214.72;4978173;28;20250;-85
2023/04/01 10:39:13;;;;;;;;;;;;;;;14.81;nan;100214.72;4983038;28;19918;-84
2023/04/01 10:41:50;;;;;;;;;;;;;;;14.84;nan;100226.00;4979518;28;20478;-86
2023/04/01 10:44:31;;;;;;;;;;;;;;;14.83;nan;100217.13;4976177;28;20536;-84
2023/04/01 10:47:03;;;;;;;;;;;;;;;14.83;nan;100225.22;4974761;28;19949;-86
2023/04/01 10:49:31;;;;;;;;;;;;;;;14.89;nan;100229.44;4977170;28;19949;-86
2023/04/01 10:52:02;;;;;;;;;;;;;;;14.92;nan;100230.78;4977460;28;19918;-85
2023/04/01 10:54:34;;;;;;;;;;;;;;;14.91;nan;100229.97;4985700;28;19929;-85
2023/04/01 10:57:02;;;;;;;;;;;;;;;14.89;nan;100232.13;4984626;28;19921;-86
2023/04/01 10:59:46;;;;;;;;;;;;;;;14.85;nan;100235.69;4983594;28;19929;-86
2023/04/01 11:02:14;;;;;;;;;;;;;;;14.82;nan;100237.88;4976165;28;19973;-86
2023/04/01 11:05:06;;;;;;;;;;;;;;;14.78;nan;100231.47;4975874;28;19929;-85
2023/04/01 11:08:04;;;;;;;;;;;;;;;14.81;nan;100240.88;4966178;28;19980;-85
2023/04/01 11:10:35;;;;;;;;;;;;;;;14.81;nan;100238.19;4942749;28;20451;-86
2023/04/01 11:13:19;;;;;;;;;;;;;;;14.78;nan;100239.56;4977491;28;19926;-85
2023/04/01 11:16:00;;;;;;;;;;;;;;;14.77;nan;100243.34;4976974;28;19925;-85
2023/04/01 11:18:44;;;;;;;;;;;;;;;14.78;nan;100257.63;4977125;28;19917;-85
2023/04/01 11:21:10;;;;;;;;;;;;;;;14.77;nan;100256.84;4981128;28;20563;-85
2023/04/01 11:23:35;;;;;;;;;;;;;;;14.79;nan;100254.66;4979643;28;20256;-85
2023/04/01 11:26:22;;;;;;;;;;;;;;;14.79;nan;100259.25;4976036;28;20386;-87
2023/04/01 11:29:00;;;;;;;;;;;;;;;14.76;nan;100260.63;4978903;28;19918;-86
2023/04/01 11:31:46;;;;;;;;;;;;;;;14.74;nan;100262.81;4975054;28;19930;-85
2023/04/01 11:34:30;;;;;;;;;;;;;;;14.70;nan;100267.16;4991573;28;19988;-86
2023/04/01 11:37:18;;;;;;;;;;;;;;;14.65;nan;100269.09;4986007;28;19918;-85
2023/04/01 11:39:43;;;;;;;;;;;;;;;14.61;nan;100279.66;4990913;28;20256;-86
2023/04/01 11:42:11;;;;;;;;;;;;;;;14.60;nan;100288.84;4987630;28;19918;-86
2023/04/01 11:44:48;;;;;;;;;;;;;;;14.57;nan;100281.31;4987018;28;19918;-87
2023/04/01 11:47:19;;;;;;;;;;;;;;;14.61;nan;100293.16;4988287;28;20519;-86
2023/04/01 11:49:51;;;;;;;;;;;;;;;14.61;nan;100295.84;4985197;28;19926;-85
2023/04/01 11:52:19;;;;;;;;;;;;;;;14.58;nan;100295.63;4985014;28;20122;-86
2023/04/01 11:54:54;;;;;;;;;;;;;;;14.58;nan;100301.81;4980734;28;19933;-86
2023/04/01 11:57:38;;;;;;;;;;;;;;;14.50;nan;100297.03;4975247;28;19926;-85
2023/04/01 12:00:21;;;;;;;;;;;;;;;14.49;nan;100298.09;4978873;28;20001;-85
2023/04/01 12:03:02;;;;;;;;;;;;;;;14.47;nan;100301.09;4983803;28;19972;-87
2023/04/01 12:05:27;;;;;;;;;;;;;;;14.49;nan;100304.31;4973916;28;19925;-86
2023/04/01 12:07:52;;;;;;;;;;;;;;;14.51;nan;100309.41;4974791;28;19926;-86
2023/04/01 12:10:21;;;;;;;;;;;;;;;14.52;nan;100324.50;4982075;28;19918;-86
2023/04/01 12:12:55;;;;;;;;;;;;;;;14.53;nan;100320.72;4980696;28;19960;-85
2023/04/01 12:15:27;;;;;;;;;;;;;;;14.56;nan;100324.75;4982500;28;20264;-87
2023/04/01 12:18:11;;;;;;;;;;;;;;;14.55;nan;100317.75;4976017;28;19925;-85
2023/04/01 12:20:36;;;;;;;;;;;;;;;14.51;nan;100329.09;4976928;28;20421;-85
2023/04/01 12:23:20;;;;;;;;;;;;;;;14.57;nan;100329.84;4982700;28;19926;-85
2023/04/01 12:26:09;;;;;;;;;;;;;;;14.57;nan;100337.13;4986514;28;19948;-85
2023/04/01 12:28:57;;;;;;;;;;;;;;;14.58;nan;100333.34;4979100;28;20005;-86
2023/04/01 12:31:41;;;;;;;;;;;;;;;14.57;nan;100335.25;4974398;28;19926;-85
2023/04/01 12:34:22;;;;;;;;;;;;;;;14.56;nan;100343.63;4978826;28;19965;-87
2023/04/01 12:37:02;;;;;;;;;;;;;;;14.55;nan;100344.72;4981502;28;19926;-87
2023/04/01 12:39:46;;;;;;;;;;;;;;;14.55;nan;100340.13;4985974;28;19922;-86
2023/04/01 12:42:12;;;;;;;;;;;;;;;14.49;nan;100346.63;4982594;28;20369;-87
2023/04/01 12:45:00;;;;;;;;;;;;;;;14.49;nan;100349.31;4977344;28;19951;-84
2023/04/01 12:47:38;;;;;;;;;;;;;;;14.41;nan;100352.63;4952590;28;19944;-87
2023/04/01 12:50:22;;;;;;;;;;;;;;;14.32;nan;100355.09;4977829;28;20020;-84
2023/04/01 12:52:50;;;;;;;;;;;;;;;14.24;nan;100355.72;4979905;28;19922;-86
2023/04/01 12:55:36;;;;;;;;;;;;;;;14.23;nan;100354.09;4975659;28;19922;-85
2023/04/01 12:58:20;;;;;;;;;;;;;;;14.24;nan;100358.41;4981343;28;19922;-85
2023/04/01 13:00:59;;;;;;;;;;;;;;;14.18;nan;100357.66;4980828;28;20523;-85
2023/04/01 13:03:46;;;;;;;;;;;;;;;14.20;nan;100362.75;4980486;28;20051;-85
2023/04/01 13:06:23;;;;;;;;;;;;;;;14.20;nan;100368.16;4980864;28;20292;-85
2023/04/01 13:08:49;;;;;;;;;;;;;;;14.15;nan;100368.97;4981064;28;19926;-86
2023/04/01 13:11:20;;;;;;;;;;;;;;;14.14;nan;100370.06;4979299;28;20070;-87
2023/04/01 13:13:55;;;;;;;;;;;;;;;14.15;nan;100368.16;4975329;28;19917;-85
2023/04/01 13:16:24;;;;;;;;;;;;;;;14.21;nan;100375.94;4975105;28;19922;-85
2023/04/01 13:19:08;;;;;;;;;;;;;;;14.26;nan;100382.38;4975470;28;20356;-85
2023/04/01 13:21:54;;;;;;;;;;;;;;;14.33;nan;100385.53;4980253;28;19936;-85
2023/04/01 13:24:37;;;;;;;;;;;;;;;14.39;nan;100396.03;4979082;28;20450;-86
2023/04/01 13:27:06;;;;;;;;;;;;;;;14.41;nan;100395.75;4975796;28;20427;-85
2023/04/01 13:29:54;;;;;;;;;;;;;;;14.42;nan;100400.03;4976750;28;19960;-85